createdAt,value
2017-01-24T00:00:32.528Z,49.86
2017-01-24T00:01:41.525Z,49.93
2017-01-24T00:02:50.511Z,49.84
2017-01-24T00:03:59.496Z,50.03
2017-01-24T00:05:08.477Z,49.96
2017-01-24T00:06:17.488Z,49.84
2017-01-24T00:07:26.474Z,49.74
2017-01-24T00:08:35.459Z,49.84
2017-01-24T00:09:44.450Z,49.93
2017-01-24T00:10:53.434Z,49.93
2017-01-24T00:12:02.447Z,49.93
2017-01-24T00:13:11.443Z,50.12
2017-01-24T00:14:20.431Z,50.32
2017-01-24T00:15:29.408Z,50.67
2017-01-24T00:16:38.415Z,50.96
2017-01-24T00:17:47.405Z,50.77
2017-01-24T00:18:56.400Z,50.58
2017-01-24T00:20:05.375Z,50.48
2017-01-24T00:21:14.363Z,50.38
2017-01-24T00:22:23.355Z,50.67
2017-01-24T00:23:32.338Z,50.48
2017-01-24T00:24:41.351Z,50.48
2017-01-24T00:25:50.342Z,50.58
2017-01-24T00:26:59.318Z,50.48
2017-01-24T00:28:08.300Z,50.58
2017-01-24T00:29:17.341Z,50.67
2017-01-24T00:30:26.330Z,50.48
2017-01-24T00:31:35.319Z,51.22
2017-01-24T00:32:44.307Z,51.03
2017-01-24T00:33:53.283Z,50.84
2017-01-24T00:35:02.278Z,51.42
2017-01-24T00:36:11.313Z,51.32
2017-01-24T00:37:20.304Z,51.22
2017-01-24T00:38:29.276Z,51.03
2017-01-24T00:39:38.262Z,50.93
2017-01-24T00:40:47.250Z,50.56
2017-01-24T00:41:56.235Z,51.13
2017-01-24T00:43:05.221Z,51.13
2017-01-24T00:44:14.204Z,50.74
2017-01-24T00:45:23.194Z,51.03
2017-01-24T00:46:32.174Z,51.13
2017-01-24T00:47:41.160Z,50.46
2017-01-24T00:48:50.135Z,50.56
2017-01-24T00:49:59.121Z,50.46
2017-01-24T00:51:08.102Z,50.74
2017-01-24T00:52:17.076Z,51.03
2017-01-24T00:53:26.061Z,50.56
2017-01-24T00:54:35.042Z,50.56
2017-01-24T00:55:44.027Z,50.72
2017-01-24T00:56:53.037Z,51.01
2017-01-24T00:58:02.071Z,51.1
2017-01-24T00:59:11.047Z,51.13
2017-01-24T01:00:20.022Z,51.01
2017-01-24T01:01:29.010Z,51.32
2017-01-24T01:02:37.996Z,51.77
2017-01-24T01:03:46.995Z,51.2
2017-01-24T01:04:55.960Z,51.39
2017-01-24T01:06:04.938Z,51.77
2017-01-24T01:07:13.929Z,51.39
2017-01-24T01:08:22.914Z,51.48
2017-01-24T01:09:31.903Z,51.1
2017-01-24T01:10:40.882Z,51.2
2017-01-24T01:11:49.895Z,51.2
2017-01-24T01:12:58.994Z,51.29
2017-01-24T01:14:07.986Z,51.2
2017-01-24T01:15:16.977Z,51.65
2017-01-24T01:16:25.980Z,52.51
2017-01-24T01:17:34.969Z,51.77
2017-01-24T01:18:43.941Z,51.77
2017-01-24T01:19:52.924Z,51.58
2017-01-24T01:21:01.910Z,51.97
2017-01-24T01:22:10.892Z,52.13
2017-01-24T01:23:19.873Z,52.42
2017-01-24T01:24:28.863Z,52.13
2017-01-24T01:25:37.854Z,52.03
2017-01-24T01:26:46.825Z,52.03
2017-01-24T01:27:55.817Z,51.93
2017-01-24T01:29:04.812Z,52.32
2017-01-24T01:30:13.785Z,52.32
2017-01-24T01:31:22.763Z,52.32
2017-01-24T01:32:31.745Z,52.32
2017-01-24T01:33:40.754Z,52.22
2017-01-24T01:34:49.756Z,52.32
2017-01-24T01:35:58.735Z,52.8
2017-01-24T01:37:07.737Z,52.51
2017-01-24T01:38:16.714Z,52.42
2017-01-24T01:39:25.707Z,52.42
2017-01-24T01:40:34.684Z,52.22
2017-01-24T01:41:43.675Z,51.93
2017-01-24T01:42:52.657Z,52.03
2017-01-24T01:44:01.650Z,52.13
2017-01-24T01:45:10.624Z,52.67
2017-01-24T01:46:19.621Z,52.58
2017-01-24T01:47:28.599Z,52.39
2017-01-24T01:48:37.578Z,52.32
2017-01-24T01:49:46.563Z,52.67
2017-01-24T01:50:55.550Z,52.48
2017-01-24T01:52:04.549Z,52.13
2017-01-24T01:53:13.522Z,52.13
2017-01-24T01:54:22.526Z,52.42
2017-01-24T01:55:31.507Z,52.67
2017-01-24T01:56:40.483Z,52.51
2017-01-24T01:57:49.469Z,52.39
2017-01-24T01:58:58.449Z,52.1
2017-01-24T02:00:07.435Z,52.13
2017-01-24T02:01:16.412Z,52.22
2017-01-24T02:02:25.396Z,52.2
2017-01-24T02:03:34.397Z,52.67
2017-01-24T02:04:43.383Z,52.96
2017-01-24T02:05:52.365Z,53.16
2017-01-24T02:07:01.352Z,53.34
2017-01-24T02:08:10.537Z,53.25
2017-01-24T02:09:19.905Z,53.06
2017-01-24T02:10:28.884Z,52.96
2017-01-24T02:11:37.860Z,52.87
2017-01-24T02:12:46.851Z,52.87
2017-01-24T02:13:55.833Z,53.34
2017-01-24T02:15:04.833Z,52.87
2017-01-24T02:16:13.838Z,52.77
2017-01-24T02:17:22.818Z,52.48
2017-01-24T02:18:31.831Z,52.77
2017-01-24T02:19:40.814Z,52.58
2017-01-24T02:20:49.793Z,52.48
2017-01-24T02:21:58.777Z,52.77
2017-01-24T02:23:07.752Z,52.96
2017-01-24T02:24:16.743Z,53.06
2017-01-24T02:25:25.720Z,53.34
2017-01-24T02:26:34.710Z,53.25
2017-01-24T02:27:43.709Z,53.34
2017-01-24T02:28:52.693Z,53.44
2017-01-24T02:30:01.666Z,53.44
2017-01-24T02:31:10.654Z,53.06
2017-01-24T02:32:19.640Z,53.53
2017-01-24T02:33:28.631Z,53.51
2017-01-24T02:34:37.598Z,53.44
2017-01-24T02:35:46.567Z,53.7
2017-01-24T02:36:55.558Z,53.51
2017-01-24T02:38:04.532Z,53.41
2017-01-24T02:39:13.527Z,53.41
2017-01-24T02:40:22.529Z,53.22
2017-01-24T02:41:31.568Z,53.13
2017-01-24T02:42:40.541Z,53.51
2017-01-24T02:43:49.529Z,53.22
2017-01-24T02:44:58.523Z,53.13
2017-01-24T02:46:07.513Z,53.32
2017-01-24T02:47:16.503Z,53.7
2017-01-24T02:48:25.504Z,53.32
2017-01-24T02:49:34.487Z,53.44
2017-01-24T02:50:43.475Z,52.96
2017-01-24T02:51:52.453Z,52.96
2017-01-24T02:53:01.444Z,53.25
2017-01-24T02:54:10.427Z,53.61
2017-01-24T02:55:19.400Z,53.61
2017-01-24T02:56:28.371Z,53.41
2017-01-24T02:57:37.394Z,53.7
2017-01-24T02:58:46.369Z,53.8
2017-01-24T02:59:55.360Z,53.89
2017-01-24T03:01:04.340Z,53.89
2017-01-24T03:02:13.319Z,53.89
2017-01-24T03:03:22.306Z,53.89
2017-01-24T03:04:31.288Z,53.89
2017-01-24T03:05:40.280Z,54.08
2017-01-24T03:06:49.259Z,53.61
2017-01-24T03:07:58.239Z,53.8
2017-01-24T03:09:07.640Z,53.89
2017-01-24T03:10:16.620Z,54.18
2017-01-24T03:11:25.612Z,54.15
2017-01-24T03:12:34.595Z,53.7
2017-01-24T03:13:43.579Z,53.8
2017-01-24T03:14:52.570Z,53.61
2017-01-24T03:16:01.559Z,53.61
2017-01-24T03:17:10.537Z,53.61
2017-01-24T03:18:19.532Z,53.51
2017-01-24T03:19:28.529Z,53.7
2017-01-24T03:20:37.501Z,53.8
2017-01-24T03:21:46.501Z,53.7
2017-01-24T03:22:55.487Z,53.89
2017-01-24T03:24:04.467Z,53.8
2017-01-24T03:25:13.450Z,53.58
2017-01-24T03:26:22.456Z,53.51
2017-01-24T03:27:31.429Z,53.41
2017-01-24T03:28:40.422Z,53.8
2017-01-24T03:29:49.388Z,53.89
2017-01-24T03:30:58.362Z,53.8
2017-01-24T03:32:07.357Z,53.99
2017-01-24T03:33:16.329Z,53.61
2017-01-24T03:34:25.324Z,53.77
2017-01-24T03:35:34.300Z,53.96
2017-01-24T03:36:43.292Z,53.86
2017-01-24T03:37:52.265Z,54.06
2017-01-24T03:39:01.290Z,54.34
2017-01-24T03:40:10.265Z,54.06
2017-01-24T03:41:19.279Z,53.89
2017-01-24T03:42:28.278Z,53.61
2017-01-24T03:43:37.270Z,53.77
2017-01-24T03:44:46.305Z,53.77
2017-01-24T03:45:55.274Z,54.06
2017-01-24T03:47:04.268Z,54.06
2017-01-24T03:48:13.284Z,54.15
2017-01-24T03:49:22.265Z,53.96
2017-01-24T03:50:31.245Z,53.96
2017-01-24T03:51:40.226Z,53.96
2017-01-24T03:52:49.342Z,54.63
2017-01-24T03:53:58.450Z,54.82
2017-01-24T03:55:07.432Z,54.72
2017-01-24T03:56:16.414Z,54.53
2017-01-24T03:57:25.394Z,54.15
2017-01-24T03:58:34.387Z,54.15
2017-01-24T03:59:43.370Z,54.15
2017-01-24T04:00:52.349Z,54.34
2017-01-24T04:02:01.337Z,54.53
2017-01-24T04:03:10.333Z,54.53
2017-01-24T04:04:19.318Z,54.53
2017-01-24T04:05:28.304Z,54.63
2017-01-24T04:06:37.283Z,54.53
2017-01-24T04:07:46.254Z,54.63
2017-01-24T04:08:55.243Z,54.44
2017-01-24T04:10:04.231Z,53.96
2017-01-24T04:11:13.213Z,54.34
2017-01-24T04:12:22.207Z,53.96
2017-01-24T04:13:31.206Z,54.63
2017-01-24T04:14:40.195Z,54.63
2017-01-24T04:15:49.181Z,54.72
2017-01-24T04:16:58.174Z,54.63
2017-01-24T04:18:07.156Z,54.44
2017-01-24T04:19:16.160Z,54.53
2017-01-24T04:20:25.136Z,54.63
2017-01-24T04:21:34.122Z,54.72
2017-01-24T04:22:43.102Z,54.53
2017-01-24T04:23:52.159Z,54.82
2017-01-24T04:25:01.132Z,54.91
2017-01-24T04:26:10.107Z,54.72
2017-01-24T04:27:19.124Z,54.82
2017-01-24T04:28:28.108Z,55.11
2017-01-24T04:29:37.086Z,54.82
2017-01-24T04:30:46.064Z,55.3
2017-01-24T04:31:55.065Z,55.01
2017-01-24T04:33:04.030Z,54.72
2017-01-24T04:34:13.014Z,55.2
2017-01-24T04:35:21.991Z,55.01
2017-01-24T04:36:30.980Z,55.11
2017-01-24T04:37:39.971Z,55.3
2017-01-24T04:38:48.947Z,55.08
2017-01-24T04:39:57.926Z,55.3
2017-01-24T04:41:06.907Z,55.3
2017-01-24T04:42:15.876Z,55.11
2017-01-24T04:43:24.865Z,54.91
2017-01-24T04:44:33.856Z,54.63
2017-01-24T04:45:42.830Z,54.63
2017-01-24T04:46:51.806Z,55.11
2017-01-24T04:48:00.799Z,55.11
2017-01-24T04:49:09.767Z,54.82
2017-01-24T04:50:18.752Z,55.11
2017-01-24T04:51:27.725Z,54.91
2017-01-24T04:52:36.700Z,55.11
2017-01-24T04:53:45.706Z,55.2
2017-01-24T04:54:54.697Z,55.11
2017-01-24T04:56:03.688Z,55.01
2017-01-24T04:57:12.667Z,55.11
2017-01-24T04:58:21.646Z,55.01
2017-01-24T04:59:30.628Z,55.2
2017-01-24T05:00:39.608Z,55.27
2017-01-24T05:01:48.588Z,55.46
2017-01-24T05:02:57.565Z,55.2
2017-01-24T05:04:06.542Z,55.11
2017-01-24T05:05:15.533Z,55.11
2017-01-24T05:06:24.510Z,55.2
2017-01-24T05:07:33.488Z,55.01
2017-01-24T05:08:42.466Z,55.4
2017-01-24T05:09:51.441Z,55.36
2017-01-24T05:11:00.422Z,55.36
2017-01-24T05:12:09.420Z,54.91
2017-01-24T05:13:18.428Z,54.82
2017-01-24T05:14:27.406Z,54.79
2017-01-24T05:15:36.384Z,54.72
2017-01-24T05:16:45.989Z,54.72
2017-01-24T05:17:55.386Z,54.72
2017-01-24T05:19:04.377Z,55.58
2017-01-24T05:20:13.345Z,55.11
2017-01-24T05:21:22.322Z,55.58
2017-01-24T05:22:31.314Z,55.11
2017-01-24T05:23:40.296Z,55.01
2017-01-24T05:24:49.307Z,55.2
2017-01-24T05:25:58.385Z,55.01
2017-01-24T05:27:07.518Z,55.08
2017-01-24T05:28:16.503Z,54.82
2017-01-24T05:29:25.491Z,54.99
2017-01-24T05:30:36.175Z,55.75
2017-01-24T05:31:45.182Z,55.75
2017-01-24T05:32:54.239Z,55.55
2017-01-24T05:34:03.517Z,56.13
2017-01-24T05:35:12.517Z,55.36
2017-01-24T05:36:21.490Z,55.84
2017-01-24T05:37:30.505Z,56.04
2017-01-24T05:38:39.490Z,55.75
2017-01-24T05:39:48.495Z,55.46
2017-01-24T05:40:57.484Z,55.55
2017-01-24T05:42:06.473Z,55.36
2017-01-24T05:43:15.456Z,55.36
2017-01-24T05:44:24.429Z,55.46
2017-01-24T05:45:33.411Z,55.75
2017-01-24T05:46:42.399Z,55.55
2017-01-24T05:47:51.376Z,55.75
2017-01-24T05:49:00.368Z,55.75
2017-01-24T05:50:09.350Z,55.46
2017-01-24T05:51:18.331Z,55.46
2017-01-24T05:52:27.304Z,55.08
2017-01-24T05:53:36.300Z,55.65
2017-01-24T05:54:45.278Z,55.65
2017-01-24T05:55:54.267Z,55.94
2017-01-24T05:57:03.239Z,55.94
2017-01-24T05:58:12.216Z,55.65
2017-01-24T05:59:21.204Z,55.75
2017-01-24T06:00:30.195Z,55.84
2017-01-24T06:01:39.169Z,56.6
2017-01-24T06:02:48.147Z,56.41
2017-01-24T06:03:57.110Z,56.04
2017-01-24T06:05:06.123Z,56.41
2017-01-24T06:06:15.098Z,56.41
2017-01-24T06:07:24.113Z,58.33
2017-01-24T06:08:33.082Z,61.41
2017-01-24T06:09:42.048Z,66.31
2017-01-24T06:10:51.032Z,69.5
2017-01-24T06:12:00.043Z,69.02
2017-01-24T06:13:09.035Z,70.11
2017-01-24T06:14:18.013Z,69.64
2017-01-24T06:15:26.993Z,68.49
2017-01-24T06:16:35.977Z,69.06
2017-01-24T06:17:44.965Z,68.87
2017-01-24T06:18:53.941Z,68.96
2017-01-24T06:20:02.923Z,69.86
2017-01-24T06:21:11.919Z,69.29
2017-01-24T06:22:20.892Z,69.09
2017-01-24T06:23:29.876Z,69.57
2017-01-24T06:24:38.863Z,70.05
2017-01-24T06:25:47.847Z,70.62
2017-01-24T06:26:56.827Z,70.24
2017-01-24T06:28:05.809Z,70.24
2017-01-24T06:29:14.789Z,66.99
2017-01-24T06:30:23.782Z,64.88
2017-01-24T06:31:32.773Z,62.97
2017-01-24T06:32:41.743Z,60.86
2017-01-24T06:33:50.729Z,62.11
2017-01-24T06:34:59.703Z,65.45
2017-01-24T06:36:08.683Z,66.61
2017-01-24T06:37:17.667Z,66.32
2017-01-24T06:38:26.662Z,67.27
2017-01-24T06:39:35.643Z,68.23
2017-01-24T06:40:44.634Z,67.79
2017-01-24T06:41:53.613Z,67.79
2017-01-24T06:43:02.596Z,68.27
2017-01-24T06:44:11.580Z,68.27
2017-01-24T06:45:20.561Z,68.27
2017-01-24T06:46:29.550Z,67.98
2017-01-24T06:47:38.524Z,68.36
2017-01-24T06:48:47.552Z,69.23
2017-01-24T06:49:56.528Z,69.23
2017-01-24T06:51:05.516Z,69.23
2017-01-24T06:52:14.497Z,69.8
2017-01-24T06:53:23.479Z,69.23
2017-01-24T06:54:32.456Z,70.28
2017-01-24T06:55:41.450Z,70.76
2017-01-24T06:56:50.434Z,70.95
2017-01-24T06:57:59.401Z,71.23
2017-01-24T06:59:08.385Z,71.23
2017-01-24T07:00:17.379Z,71.42
2017-01-24T07:01:26.362Z,71.14
2017-01-24T07:02:35.352Z,71.23
2017-01-24T07:03:44.333Z,72
2017-01-24T07:04:53.308Z,71.81
2017-01-24T07:06:02.296Z,71.81
2017-01-24T07:07:11.286Z,72.58
2017-01-24T07:08:20.271Z,71.91
2017-01-24T07:09:29.254Z,71.91
2017-01-24T07:10:38.233Z,72
2017-01-24T07:11:47.203Z,72.67
2017-01-24T07:12:56.247Z,72.71
2017-01-24T07:14:05.233Z,73.09
2017-01-24T07:15:14.215Z,72.9
2017-01-24T07:16:23.204Z,73.38
2017-01-24T07:17:32.209Z,73.38
2017-01-24T07:18:41.184Z,72.71
2017-01-24T07:19:50.183Z,72.71
2017-01-24T07:20:59.170Z,71.66
2017-01-24T07:22:08.146Z,72.71
2017-01-24T07:23:17.117Z,71.84
2017-01-24T07:24:26.098Z,71.84
2017-01-24T07:25:35.087Z,72.32
2017-01-24T07:26:44.076Z,72.42
2017-01-24T07:27:53.056Z,72.42
2017-01-24T07:29:02.051Z,72.61
2017-01-24T07:30:11.036Z,72.52
2017-01-24T07:31:20.018Z,72.55
2017-01-24T07:32:29.009Z,72.74
2017-01-24T07:33:37.996Z,72.55
2017-01-24T07:34:46.972Z,72.27
2017-01-24T07:35:55.953Z,72.55
2017-01-24T07:37:04.943Z,72.84
2017-01-24T07:38:13.917Z,72.55
2017-01-24T07:39:22.901Z,72.74
2017-01-24T07:40:31.873Z,72.55
2017-01-24T07:41:40.845Z,73.13
2017-01-24T07:42:49.822Z,72.17
2017-01-24T07:43:58.819Z,72.45
2017-01-24T07:45:07.803Z,72.84
2017-01-24T07:46:16.795Z,72.64
2017-01-24T07:47:25.768Z,72.36
2017-01-24T07:48:34.773Z,72.74
2017-01-24T07:49:43.765Z,72.55
2017-01-24T07:50:52.754Z,72.55
2017-01-24T07:52:01.744Z,72.45
2017-01-24T07:53:10.729Z,72.17
2017-01-24T07:54:19.711Z,71.88
2017-01-24T07:55:28.691Z,72.36
2017-01-24T07:56:37.689Z,72.17
2017-01-24T07:57:46.680Z,72.17
2017-01-24T07:58:55.653Z,72.55
2017-01-24T08:00:04.648Z,72.74
2017-01-24T08:01:13.638Z,72.64
2017-01-24T08:02:22.618Z,72.94
2017-01-24T08:03:31.612Z,72.94
2017-01-24T08:04:40.587Z,72.84
2017-01-24T08:05:49.576Z,72.94
2017-01-24T08:06:58.552Z,73.32
2017-01-24T08:08:07.544Z,72.74
2017-01-24T08:09:16.519Z,73.13
2017-01-24T08:10:25.506Z,72.88
2017-01-24T08:11:34.493Z,73.45
2017-01-24T08:12:43.471Z,73.07
2017-01-24T08:13:52.460Z,72.97
2017-01-24T08:15:01.443Z,72.3
2017-01-24T08:16:10.432Z,72.97
2017-01-24T08:17:19.415Z,73.26
2017-01-24T08:18:28.405Z,72.97
2017-01-24T08:19:37.389Z,72.88
2017-01-24T08:20:46.366Z,72.88
2017-01-24T08:21:55.351Z,72.97
2017-01-24T08:23:04.342Z,72.97
2017-01-24T08:24:13.331Z,72.88
2017-01-24T08:25:22.318Z,73.16
2017-01-24T08:26:31.302Z,73.45
2017-01-24T08:27:40.293Z,73.26
2017-01-24T08:28:49.287Z,73.45
2017-01-24T08:29:58.265Z,72.88
2017-01-24T08:31:07.251Z,72.78
2017-01-24T08:32:16.238Z,73.26
2017-01-24T08:33:25.228Z,73.45
2017-01-24T08:34:34.221Z,73.07
2017-01-24T08:35:43.215Z,73.07
2017-01-24T08:36:52.195Z,72.49
2017-01-24T08:38:01.168Z,72.78
2017-01-24T08:39:10.159Z,73.45
2017-01-24T08:40:19.142Z,73.16
2017-01-24T08:41:28.132Z,73.26
2017-01-24T08:42:37.110Z,72.97
2017-01-24T08:43:46.098Z,72.59
2017-01-24T08:44:55.083Z,72.78
2017-01-24T08:46:04.081Z,72.97
2017-01-24T08:47:13.097Z,72.78
2017-01-24T08:48:22.064Z,73.16
2017-01-24T08:49:31.049Z,73.16
2017-01-24T08:50:40.030Z,72.97
2017-01-24T08:51:49.034Z,73.55
2017-01-24T08:52:58.031Z,72.88
2017-01-24T08:54:07.026Z,72.97
2017-01-24T08:55:16.006Z,73.16
2017-01-24T08:56:24.991Z,72.68
2017-01-24T08:57:33.984Z,72.97
2017-01-24T08:58:42.972Z,72.97
2017-01-24T08:59:51.979Z,73.16
2017-01-24T09:01:00.960Z,73.26
2017-01-24T09:02:09.935Z,73.16
2017-01-24T09:03:18.956Z,73.26
2017-01-24T09:04:27.956Z,73.26
2017-01-24T09:05:36.949Z,73.45
2017-01-24T09:06:45.939Z,73.35
2017-01-24T09:07:54.935Z,72.91
2017-01-24T09:09:03.917Z,73
2017-01-24T09:10:12.902Z,72.97
2017-01-24T09:11:21.894Z,73.39
2017-01-24T09:12:30.879Z,72.97
2017-01-24T09:13:39.887Z,72.81
2017-01-24T09:14:48.874Z,73.16
2017-01-24T09:15:57.862Z,72.91
2017-01-24T09:17:06.856Z,73.3
2017-01-24T09:18:15.840Z,72.72
2017-01-24T09:19:24.823Z,73
2017-01-24T09:20:33.800Z,73.3
2017-01-24T09:21:42.790Z,73
2017-01-24T09:22:51.773Z,72.91
2017-01-24T09:24:00.805Z,72.81
2017-01-24T09:25:09.796Z,73.3
2017-01-24T09:26:18.799Z,73.1
2017-01-24T09:27:27.797Z,73.3
2017-01-24T09:28:36.770Z,73
2017-01-24T09:29:45.753Z,72.53
2017-01-24T09:30:54.735Z,72.05
2017-01-24T09:32:03.730Z,72.63
2017-01-24T09:33:12.716Z,72.63
2017-01-24T09:34:21.711Z,72.63
2017-01-24T09:35:30.690Z,72.91
2017-01-24T09:36:39.686Z,72.91
2017-01-24T09:37:48.658Z,73.1
2017-01-24T09:38:57.633Z,72.81
2017-01-24T09:40:06.631Z,72.72
2017-01-24T09:41:15.618Z,73
2017-01-24T09:42:24.596Z,72.72
2017-01-24T09:43:33.586Z,72.43
2017-01-24T09:44:42.573Z,72.63
2017-01-24T09:45:51.551Z,72.63
2017-01-24T09:47:00.551Z,72.91
2017-01-24T09:48:09.537Z,72.05
2017-01-24T09:49:18.509Z,72.33
2017-01-24T09:50:27.507Z,72.43
2017-01-24T09:51:36.489Z,71.76
2017-01-24T09:52:45.612Z,72.53
2017-01-24T09:53:55.004Z,72.24
2017-01-24T09:55:03.991Z,72.63
2017-01-24T09:56:12.976Z,72.72
2017-01-24T09:57:21.951Z,72.91
2017-01-24T09:58:30.955Z,73.3
2017-01-24T09:59:39.939Z,73.1
2017-01-24T10:00:48.929Z,72.14
2017-01-24T10:01:57.926Z,72.53
2017-01-24T10:03:06.971Z,72.63
2017-01-24T10:04:15.956Z,72.05
2017-01-24T10:05:24.941Z,72.33
2017-01-24T10:06:33.925Z,71.95
2017-01-24T10:07:42.934Z,72.43
2017-01-24T10:08:51.920Z,72.81
2017-01-24T10:10:00.911Z,72.05
2017-01-24T10:11:09.889Z,72.91
2017-01-24T10:12:18.883Z,72.72
2017-01-24T10:13:28.058Z,72.72
2017-01-24T10:14:37.042Z,72.63
2017-01-24T10:15:46.021Z,72.72
2017-01-24T10:16:54.997Z,72.81
2017-01-24T10:18:03.982Z,72.05
2017-01-24T10:19:12.963Z,72.05
2017-01-24T10:20:21.950Z,72.63
2017-01-24T10:21:30.930Z,72.24
2017-01-24T10:22:39.939Z,72.63
2017-01-24T10:23:48.979Z,72.43
2017-01-24T10:24:57.963Z,72.05
2017-01-24T10:26:06.967Z,72.91
2017-01-24T10:27:15.951Z,72.53
2017-01-24T10:28:24.921Z,72.24
2017-01-24T10:29:33.916Z,72.43
2017-01-24T10:30:42.890Z,71.86
2017-01-24T10:31:51.878Z,72.28
2017-01-24T10:33:00.855Z,72.63
2017-01-24T10:34:09.848Z,71.86
2017-01-24T10:35:18.828Z,72.43
2017-01-24T10:36:27.823Z,71.95
2017-01-24T10:37:36.819Z,71.86
2017-01-24T10:38:45.787Z,71.66
2017-01-24T10:39:54.792Z,72.05
2017-01-24T10:41:03.782Z,72.24
2017-01-24T10:42:12.769Z,72.05
2017-01-24T10:43:21.757Z,72.18
2017-01-24T10:44:30.731Z,71.76
2017-01-24T10:45:39.717Z,71.76
2017-01-24T10:46:48.710Z,71.76
2017-01-24T10:47:57.712Z,72.14
2017-01-24T10:49:06.692Z,72.75
2017-01-24T10:50:15.687Z,72.24
2017-01-24T10:51:24.695Z,71.98
2017-01-24T10:52:33.683Z,71.89
2017-01-24T10:53:42.690Z,71.95
2017-01-24T10:54:51.678Z,72.18
2017-01-24T10:56:00.657Z,71.8
2017-01-24T10:57:09.652Z,72.28
2017-01-24T10:58:18.641Z,71.95
2017-01-24T10:59:27.627Z,71.51
2017-01-24T11:00:36.615Z,72.43
2017-01-24T11:01:45.608Z,72.24
2017-01-24T11:02:54.583Z,71.57
2017-01-24T11:04:03.560Z,71.8
2017-01-24T11:05:12.554Z,71.89
2017-01-24T11:06:21.542Z,71.98
2017-01-24T11:07:30.542Z,71.7
2017-01-24T11:08:39.525Z,71.8
2017-01-24T11:09:48.511Z,71.8
2017-01-24T11:10:57.489Z,71.61
2017-01-24T11:12:06.476Z,71.8
2017-01-24T11:13:15.468Z,71.76
2017-01-24T11:14:24.452Z,71.8
2017-01-24T11:15:33.447Z,71.51
2017-01-24T11:16:42.440Z,71.8
2017-01-24T11:17:51.430Z,71.8
2017-01-24T11:19:00.421Z,71.61
2017-01-24T11:20:09.406Z,71.37
2017-01-24T11:21:18.388Z,71.61
2017-01-24T11:22:27.373Z,71.8
2017-01-24T11:23:36.353Z,71.7
2017-01-24T11:24:45.356Z,71.98
2017-01-24T11:25:54.344Z,71.51
2017-01-24T11:27:03.349Z,71.51
2017-01-24T11:28:12.323Z,70.93
2017-01-24T11:29:21.324Z,71.7
2017-01-24T11:30:30.318Z,71.31
2017-01-24T11:31:39.321Z,71.51
2017-01-24T11:32:48.317Z,71.51
2017-01-24T11:33:57.299Z,71.41
2017-01-24T11:35:06.281Z,71.51
2017-01-24T11:36:15.268Z,71.51
2017-01-24T11:37:24.268Z,71.61
2017-01-24T11:38:33.265Z,71.31
2017-01-24T11:39:42.240Z,71.22
2017-01-24T11:40:51.227Z,71.31
2017-01-24T11:42:00.213Z,71.89
2017-01-24T11:43:09.209Z,71.31
2017-01-24T11:44:18.195Z,71.22
2017-01-24T11:45:27.178Z,71.31
2017-01-24T11:46:36.164Z,71.31
2017-01-24T11:47:45.138Z,71.61
2017-01-24T11:48:54.125Z,71.22
2017-01-24T11:50:03.100Z,71.41
2017-01-24T11:51:12.088Z,71.41
2017-01-24T11:52:21.119Z,71.41
2017-01-24T11:53:30.103Z,71.51
2017-01-24T11:54:39.095Z,71.41
2017-01-24T11:55:48.089Z,71.7
2017-01-24T11:56:57.079Z,71.31
2017-01-24T11:58:06.063Z,71.51
2017-01-24T11:59:15.048Z,71.98
2017-01-24T12:00:24.043Z,71.61
2017-01-24T12:01:33.024Z,71.22
2017-01-24T12:02:42.017Z,71.41
2017-01-24T12:03:51.005Z,71.12
2017-01-24T12:04:59.994Z,71.22
2017-01-24T12:06:08.988Z,71.51
2017-01-24T12:07:17.974Z,71.41
2017-01-24T12:08:26.967Z,71.22
2017-01-24T12:09:35.950Z,71.31
2017-01-24T12:10:44.940Z,71.7
2017-01-24T12:11:53.924Z,71.61
2017-01-24T12:13:02.947Z,71.31
2017-01-24T12:14:11.927Z,71.8
2017-01-24T12:15:20.919Z,71.41
2017-01-24T12:16:29.922Z,71.41
2017-01-24T12:17:38.906Z,71.41
2017-01-24T12:18:47.909Z,71.61
2017-01-24T12:19:56.893Z,71.31
2017-01-24T12:21:05.880Z,71.31
2017-01-24T12:22:14.890Z,71.31
2017-01-24T12:23:23.870Z,71.12
2017-01-24T12:24:32.858Z,71.51
2017-01-24T12:25:41.909Z,71.41
2017-01-24T12:26:50.906Z,71.51
2017-01-24T12:27:59.894Z,71.7
2017-01-24T12:29:08.869Z,71.7
2017-01-24T12:30:17.878Z,71.51
2017-01-24T12:31:26.864Z,70.84
2017-01-24T12:32:35.852Z,71.31
2017-01-24T12:33:44.838Z,71.51
2017-01-24T12:34:53.840Z,71.12
2017-01-24T12:36:02.823Z,71.41
2017-01-24T12:37:11.813Z,71.51
2017-01-24T12:38:20.808Z,71.51
2017-01-24T12:39:29.790Z,71.31
2017-01-24T12:40:38.781Z,70.93
2017-01-24T12:41:47.765Z,71.31
2017-01-24T12:42:56.743Z,71.41
2017-01-24T12:44:06.165Z,70.93
2017-01-24T12:45:15.160Z,70.93
2017-01-24T12:46:24.135Z,71.22
2017-01-24T12:47:33.128Z,71.03
2017-01-24T12:48:42.120Z,71.03
2017-01-24T12:49:51.117Z,70.74
2017-01-24T12:51:00.113Z,71.03
2017-01-24T12:52:09.108Z,71.12
2017-01-24T12:53:18.094Z,71.03
2017-01-24T12:54:27.072Z,70.93
2017-01-24T12:55:36.063Z,70.84
2017-01-24T12:56:45.051Z,70.93
2017-01-24T12:57:54.073Z,70.93
2017-01-24T12:59:03.071Z,71.51
2017-01-24T13:00:12.056Z,71.22
2017-01-24T13:01:21.043Z,70.93
2017-01-24T13:02:30.028Z,71.31
2017-01-24T13:03:39.005Z,70.74
2017-01-24T13:04:47.998Z,70.55
2017-01-24T13:05:56.980Z,71.31
2017-01-24T13:07:05.953Z,71.12
2017-01-24T13:08:14.942Z,70.84
2017-01-24T13:09:23.933Z,71.31
2017-01-24T13:10:32.936Z,71.31
2017-01-24T13:11:41.918Z,71.12
2017-01-24T13:12:50.897Z,71.41
2017-01-24T13:13:59.905Z,71.12
2017-01-24T13:15:08.891Z,71.31
2017-01-24T13:16:17.886Z,71.12
2017-01-24T13:17:26.962Z,71.41
2017-01-24T13:18:35.981Z,71.03
2017-01-24T13:19:44.967Z,71.22
2017-01-24T13:20:53.964Z,70.45
2017-01-24T13:22:02.956Z,70.84
2017-01-24T13:23:11.960Z,70.93
2017-01-24T13:24:20.935Z,71.22
2017-01-24T13:25:29.969Z,71.22
2017-01-24T13:26:38.945Z,71.41
2017-01-24T13:27:47.929Z,70.74
2017-01-24T13:28:56.912Z,71.51
2017-01-24T13:30:05.906Z,71.22
2017-01-24T13:31:14.894Z,71.12
2017-01-24T13:32:23.867Z,70.64
2017-01-24T13:33:32.870Z,71.12
2017-01-24T13:34:41.850Z,71.03
2017-01-24T13:35:50.834Z,71.12
2017-01-24T13:36:59.822Z,71.12
2017-01-24T13:38:08.807Z,70.84
2017-01-24T13:39:17.790Z,71.12
2017-01-24T13:40:26.774Z,70.74
2017-01-24T13:41:35.762Z,71.31
2017-01-24T13:42:44.752Z,71.12
2017-01-24T13:43:53.746Z,71.31
2017-01-24T13:45:02.732Z,70.84
2017-01-24T13:46:11.724Z,71.22
2017-01-24T13:47:20.727Z,71.31
2017-01-24T13:48:29.714Z,71.51
2017-01-24T13:49:38.694Z,70.74
2017-01-24T13:50:47.687Z,71.51
2017-01-24T13:51:56.682Z,71.31
2017-01-24T13:53:05.673Z,71.03
2017-01-24T13:54:14.662Z,71.41
2017-01-24T13:55:23.638Z,71.22
2017-01-24T13:56:32.612Z,70.84
2017-01-24T13:57:41.606Z,71.12
2017-01-24T13:58:50.602Z,71.31
2017-01-24T13:59:59.588Z,70.93
2017-01-24T14:01:08.572Z,71.12
2017-01-24T14:02:17.561Z,71.31
2017-01-24T14:03:26.545Z,71.22
2017-01-24T14:04:35.535Z,71.31
2017-01-24T14:05:44.536Z,71.31
2017-01-24T14:06:53.510Z,71.8
2017-01-24T14:08:02.500Z,71.12
2017-01-24T14:09:11.484Z,70.93
2017-01-24T14:10:20.478Z,71.22
2017-01-24T14:11:29.465Z,71.41
2017-01-24T14:12:38.459Z,70.64
2017-01-24T14:13:47.463Z,71.22
2017-01-24T14:14:56.442Z,70.74
2017-01-24T14:16:05.435Z,70.74
2017-01-24T14:17:14.415Z,70.55
2017-01-24T14:18:23.407Z,71.22
2017-01-24T14:19:32.400Z,70.93
2017-01-24T14:20:41.387Z,71.12
2017-01-24T14:21:50.364Z,71.12
2017-01-24T14:22:59.362Z,71.22
2017-01-24T14:24:08.338Z,71.41
2017-01-24T14:25:17.335Z,71.22
2017-01-24T14:26:26.332Z,71.31
2017-01-24T14:27:35.316Z,71.03
2017-01-24T14:28:44.308Z,71.22
2017-01-24T14:29:53.300Z,71.41
2017-01-24T14:31:02.289Z,70.84
2017-01-24T14:32:11.286Z,71.31
2017-01-24T14:33:20.284Z,71.31
2017-01-24T14:34:29.268Z,71.51
2017-01-24T14:35:38.250Z,70.74
2017-01-24T14:36:47.254Z,71.22
2017-01-24T14:37:56.232Z,71.12
2017-01-24T14:39:05.224Z,70.64
2017-01-24T14:40:14.204Z,70.45
2017-01-24T14:41:23.187Z,70.55
2017-01-24T14:42:32.172Z,70.55
2017-01-24T14:43:41.164Z,70.45
2017-01-24T14:44:50.166Z,70.64
2017-01-24T14:45:59.153Z,71.31
2017-01-24T14:47:08.148Z,70.74
2017-01-24T14:48:17.266Z,71.12
2017-01-24T14:49:26.246Z,71.8
2017-01-24T14:50:35.235Z,72.18
2017-01-24T14:51:44.228Z,71.61